aviador You're here:

K2V5 Decoded Metar

in
Report Time2017-08-24 00:55:00
UTC Time2017-08-24 01:09:16
Flight Rules vfr VFR
Wind160° at 06 kt
W.Rank160° ranks 7
Current wind is below 160° avg. (9.9)
Visibility9999 m
Phenomena:N/A
Clouds:N/A
Expected CloudBase > 6,000 ft AGL from Temp-Dew spread
CeilingNone
Temp27°C
Dew Point12°C (39% RH)
Heat Index26.8°C
AAT25.4°C
QNH1016 hPa
Raw Report
K2V5 240055Z AUTO 16006KT 10SM CLR 27/12 A3000 RMK AO2=

Extra information for K2V5:More info

Social comments